sensor_id;sensor_type;location;lat;lon;timestamp;P1;durP1;ratioP1;P2;durP2;ratioP2
58354;SDS011;44160;49.080;19.302;2022-10-22T00:02:10;16.63;;;7.72;;
58354;SDS011;44160;49.080;19.302;2022-10-22T00:04:39;14.32;;;7.22;;
58354;SDS011;44160;49.080;19.302;2022-10-22T00:07:06;17.20;;;8.15;;
58354;SDS011;44160;49.080;19.302;2022-10-22T00:09:32;18.15;;;8.20;;
58354;SDS011;44160;49.080;19.302;2022-10-22T00:11:58;14.77;;;8.60;;
58354;SDS011;44160;49.080;19.302;2022-10-22T00:14:24;14.30;;;7.53;;
58354;SDS011;44160;49.080;19.302;2022-10-22T00:16:50;12.95;;;6.93;;
58354;SDS011;44160;49.080;19.302;2022-10-22T00:19:16;12.23;;;7.80;;
58354;SDS011;44160;49.080;19.302;2022-10-22T00:21:42;11.43;;;6.90;;
58354;SDS011;44160;49.080;19.302;2022-10-22T00:24:08;12.88;;;6.63;;
58354;SDS011;44160;49.080;19.302;2022-10-22T00:26:34;15.18;;;7.03;;
58354;SDS011;44160;49.080;19.302;2022-10-22T00:29:00;12.05;;;7.65;;
58354;SDS011;44160;49.080;19.302;2022-10-22T00:31:26;14.82;;;6.60;;
58354;SDS011;44160;49.080;19.302;2022-10-22T00:33:52;14.25;;;6.72;;
58354;SDS011;44160;49.080;19.302;2022-10-22T00:36:18;13.45;;;6.65;;
58354;SDS011;44160;49.080;19.302;2022-10-22T00:38:44;12.48;;;6.68;;
58354;SDS011;44160;49.080;19.302;2022-10-22T00:41:10;12.40;;;6.38;;
58354;SDS011;44160;49.080;19.302;2022-10-22T00:43:56;13.30;;;6.60;;
58354;SDS011;44160;49.080;19.302;2022-10-22T00:46:23;11.63;;;7.47;;
58354;SDS011;44160;49.080;19.302;2022-10-22T00:48:49;13.05;;;7.07;;
58354;SDS011;44160;49.080;19.302;2022-10-22T00:51:15;13.00;;;6.95;;
58354;SDS011;44160;49.080;19.302;2022-10-22T00:53:46;11.32;;;6.75;;
58354;SDS011;44160;49.080;19.302;2022-10-22T00:56:13;11.55;;;6.75;;
58354;SDS011;44160;49.080;19.302;2022-10-22T00:58:43;12.25;;;6.55;;
58354;SDS011;44160;49.080;19.302;2022-10-22T01:01:11;14.35;;;7.45;;
58354;SDS011;44160;49.080;19.302;2022-10-22T01:03:38;16.23;;;8.20;;
58354;SDS011;44160;49.080;19.302;2022-10-22T01:06:05;18.75;;;8.68;;
58354;SDS011;44160;49.080;19.302;2022-10-22T01:13:58;14.95;;;8.65;;
58354;SDS011;44160;49.080;19.302;2022-10-22T01:16:34;12.13;;;7.75;;
58354;SDS011;44160;49.080;19.302;2022-10-22T01:21:51;14.40;;;8.05;;
58354;SDS011;44160;49.080;19.302;2022-10-22T01:24:30;17.40;;;8.00;;
58354;SDS011;44160;49.080;19.302;2022-10-22T01:29:27;16.15;;;7.93;;
58354;SDS011;44160;49.080;19.302;2022-10-22T01:31:55;15.18;;;8.10;;
58354;SDS011;44160;49.080;19.302;2022-10-22T01:34:23;15.02;;;7.00;;
58354;SDS011;44160;49.080;19.302;2022-10-22T01:36:50;17.02;;;7.60;;
58354;SDS011;44160;49.080;19.302;2022-10-22T01:39:17;18.23;;;8.05;;
58354;SDS011;44160;49.080;19.302;2022-10-22T01:41:44;13.65;;;7.05;;
58354;SDS011;44160;49.080;19.302;2022-10-22T01:46:53;16.50;;;7.38;;
58354;SDS011;44160;49.080;19.302;2022-10-22T01:49:25;15.77;;;7.75;;
58354;SDS011;44160;49.080;19.302;2022-10-22T01:51:57;11.88;;;7.75;;
58354;SDS011;44160;49.080;19.302;2022-10-22T01:59:49;13.75;;;6.90;;
58354;SDS011;44160;49.080;19.302;2022-10-22T02:04:45;13.63;;;7.68;;
58354;SDS011;44160;49.080;19.302;2022-10-22T02:07:14;16.05;;;6.78;;
58354;SDS011;44160;49.080;19.302;2022-10-22T02:09:40;17.45;;;7.03;;
58354;SDS011;44160;49.080;19.302;2022-10-22T02:12:08;16.27;;;7.90;;
58354;SDS011;44160;49.080;19.302;2022-10-22T02:14:36;16.52;;;9.15;;
58354;SDS011;44160;49.080;19.302;2022-10-22T02:17:03;16.38;;;9.55;;
58354;SDS011;44160;49.080;19.302;2022-10-22T02:22:02;18.10;;;9.52;;
58354;SDS011;44160;49.080;19.302;2022-10-22T02:24:29;20.17;;;10.48;;
58354;SDS011;44160;49.080;19.302;2022-10-22T02:29:36;18.13;;;9.82;;
58354;SDS011;44160;49.080;19.302;2022-10-22T02:32:04;16.30;;;10.35;;
58354;SDS011;44160;49.080;19.302;2022-10-22T02:34:31;16.38;;;10.18;;
58354;SDS011;44160;49.080;19.302;2022-10-22T02:36:58;18.30;;;9.77;;
58354;SDS011;44160;49.080;19.302;2022-10-22T02:39:24;16.30;;;10.48;;
58354;SDS011;44160;49.080;19.302;2022-10-22T02:41:51;19.27;;;10.63;;
58354;SDS011;44160;49.080;19.302;2022-10-22T02:44:20;19.15;;;10.25;;
58354;SDS011;44160;49.080;19.302;2022-10-22T02:46:46;16.25;;;10.23;;
58354;SDS011;44160;49.080;19.302;2022-10-22T02:49:13;18.60;;;10.43;;
58354;SDS011;44160;49.080;19.302;2022-10-22T02:51:39;18.00;;;10.52;;
58354;SDS011;44160;49.080;19.302;2022-10-22T02:54:05;17.13;;;9.55;;
58354;SDS011;44160;49.080;19.302;2022-10-22T02:56:31;17.17;;;10.45;;
58354;SDS011;44160;49.080;19.302;2022-10-22T02:58:57;22.67;;;10.65;;
58354;SDS011;44160;49.080;19.302;2022-10-22T03:01:23;17.67;;;9.50;;
58354;SDS011;44160;49.080;19.302;2022-10-22T03:03:49;15.85;;;9.52;;
58354;SDS011;44160;49.080;19.302;2022-10-22T03:06:15;24.85;;;10.38;;
58354;SDS011;44160;49.080;19.302;2022-10-22T03:08:42;18.02;;;9.55;;
58354;SDS011;44160;49.080;19.302;2022-10-22T03:11:08;19.35;;;10.10;;
58354;SDS011;44160;49.080;19.302;2022-10-22T03:13:34;15.68;;;9.05;;
58354;SDS011;44160;49.080;19.302;2022-10-22T03:16:00;17.70;;;8.85;;
58354;SDS011;44160;49.080;19.302;2022-10-22T03:18:26;17.88;;;9.25;;
58354;SDS011;44160;49.080;19.302;2022-10-22T03:21:07;20.17;;;9.27;;
58354;SDS011;44160;49.080;19.302;2022-10-22T03:23:34;15.63;;;8.73;;
58354;SDS011;44160;49.080;19.302;2022-10-22T03:26:01;23.60;;;9.80;;
58354;SDS011;44160;49.080;19.302;2022-10-22T03:28:27;16.70;;;9.80;;
58354;SDS011;44160;49.080;19.302;2022-10-22T03:30:53;18.67;;;10.05;;
58354;SDS011;44160;49.080;19.302;2022-10-22T03:33:19;15.77;;;9.18;;
58354;SDS011;44160;49.080;19.302;2022-10-22T03:35:45;13.88;;;9.00;;
58354;SDS011;44160;49.080;19.302;2022-10-22T03:38:11;17.73;;;9.10;;
58354;SDS011;44160;49.080;19.302;2022-10-22T03:40:38;16.25;;;9.38;;
58354;SDS011;44160;49.080;19.302;2022-10-22T03:43:04;19.27;;;10.52;;
58354;SDS011;44160;49.080;19.302;2022-10-22T03:45:30;16.15;;;8.95;;
58354;SDS011;44160;49.080;19.302;2022-10-22T03:47:56;14.88;;;8.65;;
58354;SDS011;44160;49.080;19.302;2022-10-22T03:50:22;19.48;;;8.98;;
58354;SDS011;44160;49.080;19.302;2022-10-22T03:52:48;18.55;;;8.90;;
58354;SDS011;44160;49.080;19.302;2022-10-22T03:55:14;17.90;;;9.77;;
58354;SDS011;44160;49.080;19.302;2022-10-22T03:57:40;18.10;;;10.20;;
58354;SDS011;44160;49.080;19.302;2022-10-22T04:00:06;18.42;;;10.23;;
58354;SDS011;44160;49.080;19.302;2022-10-22T04:02:33;14.68;;;8.95;;
58354;SDS011;44160;49.080;19.302;2022-10-22T04:04:59;13.73;;;9.38;;
58354;SDS011;44160;49.080;19.302;2022-10-22T04:07:25;15.93;;;8.95;;
58354;SDS011;44160;49.080;19.302;2022-10-22T04:09:51;23.63;;;11.13;;
58354;SDS011;44160;49.080;19.302;2022-10-22T04:12:17;17.08;;;10.10;;
58354;SDS011;44160;49.080;19.302;2022-10-22T04:14:43;17.70;;;11.30;;
58354;SDS011;44160;49.080;19.302;2022-10-22T04:17:09;21.70;;;12.05;;
58354;SDS011;44160;49.080;19.302;2022-10-22T04:19:35;25.02;;;11.82;;
58354;SDS011;44160;49.080;19.302;2022-10-22T04:22:01;25.35;;;12.50;;
58354;SDS011;44160;49.080;19.302;2022-10-22T04:24:29;20.10;;;11.25;;
58354;SDS011;44160;49.080;19.302;2022-10-22T04:26:55;19.10;;;11.25;;
58354;SDS011;44160;49.080;19.302;2022-10-22T04:29:21;19.27;;;10.15;;
58354;SDS011;44160;49.080;19.302;2022-10-22T04:31:47;23.38;;;12.88;;
58354;SDS011;44160;49.080;19.302;2022-10-22T04:34:14;21.60;;;12.23;;
58354;SDS011;44160;49.080;19.302;2022-10-22T04:36:40;27.35;;;13.55;;
58354;SDS011;44160;49.080;19.302;2022-10-22T04:39:06;26.13;;;13.40;;
58354;SDS011;44160;49.080;19.302;2022-10-22T04:41:33;23.20;;;11.95;;
58354;SDS011;44160;49.080;19.302;2022-10-22T04:43:59;20.50;;;11.48;;
58354;SDS011;44160;49.080;19.302;2022-10-22T04:46:27;19.83;;;11.70;;
58354;SDS011;44160;49.080;19.302;2022-10-22T04:48:53;20.33;;;10.52;;
58354;SDS011;44160;49.080;19.302;2022-10-22T04:51:20;23.77;;;11.32;;
58354;SDS011;44160;49.080;19.302;2022-10-22T04:53:47;18.10;;;10.55;;
58354;SDS011;44160;49.080;19.302;2022-10-22T04:58:44;25.90;;;12.15;;
58354;SDS011;44160;49.080;19.302;2022-10-22T05:01:12;18.73;;;12.15;;
58354;SDS011;44160;49.080;19.302;2022-10-22T05:03:38;17.70;;;11.27;;
58354;SDS011;44160;49.080;19.302;2022-10-22T05:06:04;24.08;;;12.25;;
58354;SDS011;44160;49.080;19.302;2022-10-22T05:08:30;22.38;;;12.30;;
58354;SDS011;44160;49.080;19.302;2022-10-22T05:10:56;25.13;;;12.50;;
58354;SDS011;44160;49.080;19.302;2022-10-22T05:13:22;17.65;;;11.75;;
58354;SDS011;44160;49.080;19.302;2022-10-22T05:15:48;19.85;;;11.60;;
58354;SDS011;44160;49.080;19.302;2022-10-22T05:18:14;16.50;;;10.30;;
58354;SDS011;44160;49.080;19.302;2022-10-22T05:20:40;18.48;;;10.50;;
58354;SDS011;44160;49.080;19.302;2022-10-22T05:23:07;17.90;;;10.93;;
58354;SDS011;44160;49.080;19.302;2022-10-22T05:25:36;20.10;;;11.05;;
58354;SDS011;44160;49.080;19.302;2022-10-22T05:28:03;21.05;;;10.55;;
58354;SDS011;44160;49.080;19.302;2022-10-22T05:30:29;24.98;;;10.43;;
58354;SDS011;44160;49.080;19.302;2022-10-22T05:32:55;20.25;;;11.32;;
58354;SDS011;44160;49.080;19.302;2022-10-22T05:35:21;23.83;;;11.13;;
58354;SDS011;44160;49.080;19.302;2022-10-22T05:37:47;18.20;;;11.10;;
58354;SDS011;44160;49.080;19.302;2022-10-22T05:40:13;19.98;;;11.05;;
58354;SDS011;44160;49.080;19.302;2022-10-22T05:42:39;20.45;;;11.07;;
58354;SDS011;44160;49.080;19.302;2022-10-22T05:45:05;22.10;;;11.95;;
58354;SDS011;44160;49.080;19.302;2022-10-22T05:47:32;22.13;;;11.48;;
58354;SDS011;44160;49.080;19.302;2022-10-22T05:49:58;23.35;;;11.45;;
58354;SDS011;44160;49.080;19.302;2022-10-22T05:52:24;18.98;;;11.27;;
58354;SDS011;44160;49.080;19.302;2022-10-22T05:54:50;23.05;;;10.70;;
58354;SDS011;44160;49.080;19.302;2022-10-22T05:57:16;20.65;;;11.18;;
58354;SDS011;44160;49.080;19.302;2022-10-22T05:59:42;19.08;;;11.10;;
58354;SDS011;44160;49.080;19.302;2022-10-22T06:02:08;25.33;;;12.18;;
58354;SDS011;44160;49.080;19.302;2022-10-22T06:04:34;19.10;;;11.15;;
58354;SDS011;44160;49.080;19.302;2022-10-22T06:07:00;28.85;;;14.27;;
58354;SDS011;44160;49.080;19.302;2022-10-22T06:11:52;32.42;;;17.25;;
58354;SDS011;44160;49.080;19.302;2022-10-22T06:14:19;24.90;;;13.00;;
58354;SDS011;44160;49.080;19.302;2022-10-22T06:16:45;20.02;;;12.50;;
58354;SDS011;44160;49.080;19.302;2022-10-22T06:19:12;23.33;;;13.25;;
58354;SDS011;44160;49.080;19.302;2022-10-22T06:21:39;43.40;;;18.90;;
58354;SDS011;44160;49.080;19.302;2022-10-22T06:24:05;25.90;;;14.25;;
58354;SDS011;44160;49.080;19.302;2022-10-22T06:26:31;27.52;;;11.50;;
58354;SDS011;44160;49.080;19.302;2022-10-22T06:28:57;17.90;;;10.95;;
58354;SDS011;44160;49.080;19.302;2022-10-22T06:31:24;20.20;;;12.13;;
58354;SDS011;44160;49.080;19.302;2022-10-22T06:33:50;22.15;;;13.13;;
58354;SDS011;44160;49.080;19.302;2022-10-22T06:36:18;41.17;;;24.17;;
58354;SDS011;44160;49.080;19.302;2022-10-22T06:38:44;29.67;;;14.25;;
58354;SDS011;44160;49.080;19.302;2022-10-22T06:41:12;37.60;;;20.42;;
58354;SDS011;44160;49.080;19.302;2022-10-22T06:43:38;37.90;;;20.55;;
58354;SDS011;44160;49.080;19.302;2022-10-22T06:46:06;75.72;;;35.50;;
58354;SDS011;44160;49.080;19.302;2022-10-22T06:48:33;28.27;;;12.85;;
58354;SDS011;44160;49.080;19.302;2022-10-22T06:51:06;22.88;;;13.23;;
58354;SDS011;44160;49.080;19.302;2022-10-22T06:53:32;63.35;;;33.50;;
58354;SDS011;44160;49.080;19.302;2022-10-22T06:56:03;30.85;;;17.85;;
58354;SDS011;44160;49.080;19.302;2022-10-22T06:58:29;31.00;;;17.30;;
58354;SDS011;44160;49.080;19.302;2022-10-22T07:01:02;38.75;;;19.80;;
58354;SDS011;44160;49.080;19.302;2022-10-22T07:03:28;41.97;;;21.20;;
58354;SDS011;44160;49.080;19.302;2022-10-22T07:05:55;24.08;;;13.50;;
58354;SDS011;44160;49.080;19.302;2022-10-22T07:08:23;27.70;;;14.60;;
58354;SDS011;44160;49.080;19.302;2022-10-22T07:10:49;51.83;;;28.40;;
58354;SDS011;44160;49.080;19.302;2022-10-22T07:13:15;45.83;;;24.85;;
58354;SDS011;44160;49.080;19.302;2022-10-22T07:15:41;38.00;;;21.55;;
58354;SDS011;44160;49.080;19.302;2022-10-22T07:18:07;24.58;;;11.57;;
58354;SDS011;44160;49.080;19.302;2022-10-22T07:20:33;19.15;;;10.88;;
58354;SDS011;44160;49.080;19.302;2022-10-22T07:26:04;19.80;;;10.13;;
58354;SDS011;44160;49.080;19.302;2022-10-22T07:28:32;22.88;;;10.63;;
58354;SDS011;44160;49.080;19.302;2022-10-22T07:30:58;15.88;;;10.13;;
58354;SDS011;44160;49.080;19.302;2022-10-22T07:33:25;24.13;;;13.60;;
58354;SDS011;44160;49.080;19.302;2022-10-22T07:35:56;21.27;;;13.77;;
58354;SDS011;44160;49.080;19.302;2022-10-22T07:38:23;20.58;;;12.30;;
58354;SDS011;44160;49.080;19.302;2022-10-22T07:40:49;19.77;;;10.95;;
58354;SDS011;44160;49.080;19.302;2022-10-22T07:43:15;17.13;;;9.63;;
58354;SDS011;44160;49.080;19.302;2022-10-22T07:45:42;14.35;;;8.57;;
58354;SDS011;44160;49.080;19.302;2022-10-22T07:48:08;14.65;;;8.93;;
58354;SDS011;44160;49.080;19.302;2022-10-22T07:50:34;17.08;;;9.10;;
58354;SDS011;44160;49.080;19.302;2022-10-22T07:53:02;18.33;;;10.52;;
58354;SDS011;44160;49.080;19.302;2022-10-22T07:55:28;15.82;;;8.95;;
58354;SDS011;44160;49.080;19.302;2022-10-22T07:57:55;15.43;;;9.32;;
58354;SDS011;44160;49.080;19.302;2022-10-22T08:00:21;16.85;;;10.88;;
58354;SDS011;44160;49.080;19.302;2022-10-22T08:02:47;15.73;;;8.63;;
58354;SDS011;44160;49.080;19.302;2022-10-22T08:05:13;18.50;;;9.95;;
58354;SDS011;44160;49.080;19.302;2022-10-22T08:07:40;20.13;;;9.13;;
58354;SDS011;44160;49.080;19.302;2022-10-22T08:10:07;16.63;;;9.30;;
58354;SDS011;44160;49.080;19.302;2022-10-22T08:12:33;17.63;;;9.68;;
58354;SDS011;44160;49.080;19.302;2022-10-22T08:14:59;15.60;;;9.57;;
58354;SDS011;44160;49.080;19.302;2022-10-22T08:17:25;19.73;;;10.73;;
58354;SDS011;44160;49.080;19.302;2022-10-22T08:19:51;16.33;;;10.75;;
58354;SDS011;44160;49.080;19.302;2022-10-22T08:22:17;18.02;;;9.95;;
58354;SDS011;44160;49.080;19.302;2022-10-22T08:24:43;21.52;;;10.20;;
58354;SDS011;44160;49.080;19.302;2022-10-22T08:27:09;14.65;;;9.82;;
58354;SDS011;44160;49.080;19.302;2022-10-22T08:29:35;17.58;;;9.55;;
58354;SDS011;44160;49.080;19.302;2022-10-22T08:32:02;14.73;;;9.27;;
58354;SDS011;44160;49.080;19.302;2022-10-22T08:34:29;17.77;;;9.93;;
58354;SDS011;44160;49.080;19.302;2022-10-22T08:36:56;19.35;;;10.00;;
58354;SDS011;44160;49.080;19.302;2022-10-22T08:39:22;18.65;;;9.77;;
58354;SDS011;44160;49.080;19.302;2022-10-22T08:44:45;22.88;;;10.55;;
58354;SDS011;44160;49.080;19.302;2022-10-22T08:50:04;17.95;;;10.52;;
58354;SDS011;44160;49.080;19.302;2022-10-22T08:52:30;15.98;;;9.55;;
58354;SDS011;44160;49.080;19.302;2022-10-22T08:58:15;15.13;;;9.55;;
58354;SDS011;44160;49.080;19.302;2022-10-22T09:08:45;13.63;;;9.57;;
58354;SDS011;44160;49.080;19.302;2022-10-22T09:13:39;22.67;;;11.63;;
58354;SDS011;44160;49.080;19.302;2022-10-22T09:24:10;14.90;;;9.43;;
58354;SDS011;44160;49.080;19.302;2022-10-22T09:26:38;17.75;;;10.40;;
58354;SDS011;44160;49.080;19.302;2022-10-22T09:29:05;19.67;;;11.27;;
58354;SDS011;44160;49.080;19.302;2022-10-22T09:31:31;15.23;;;9.13;;
58354;SDS011;44160;49.080;19.302;2022-10-22T09:33:58;13.68;;;9.15;;
58354;SDS011;44160;49.080;19.302;2022-10-22T09:36:30;19.35;;;9.60;;
58354;SDS011;44160;49.080;19.302;2022-10-22T09:38:56;19.02;;;9.63;;
58354;SDS011;44160;49.080;19.302;2022-10-22T09:41:24;19.65;;;10.07;;
58354;SDS011;44160;49.080;19.302;2022-10-22T09:43:50;12.63;;;8.27;;
58354;SDS011;44160;49.080;19.302;2022-10-22T09:46:18;18.08;;;9.23;;
58354;SDS011;44160;49.080;19.302;2022-10-22T09:48:49;15.90;;;9.07;;
58354;SDS011;44160;49.080;19.302;2022-10-22T09:51:20;16.45;;;10.85;;
58354;SDS011;44160;49.080;19.302;2022-10-22T09:53:57;19.25;;;12.15;;
58354;SDS011;44160;49.080;19.302;2022-10-22T09:56:28;27.98;;;13.65;;
58354;SDS011;44160;49.080;19.302;2022-10-22T09:59:01;14.77;;;10.45;;
58354;SDS011;44160;49.080;19.302;2022-10-22T10:03:53;16.50;;;9.45;;
58354;SDS011;44160;49.080;19.302;2022-10-22T10:06:19;15.45;;;9.30;;
58354;SDS011;44160;49.080;19.302;2022-10-22T10:08:46;15.80;;;9.95;;
58354;SDS011;44160;49.080;19.302;2022-10-22T10:19:15;16.08;;;9.75;;
58354;SDS011;44160;49.080;19.302;2022-10-22T10:24:53;17.85;;;10.18;;
58354;SDS011;44160;49.080;19.302;2022-10-22T10:37:46;22.02;;;11.27;;
58354;SDS011;44160;49.080;19.302;2022-10-22T10:50:48;17.90;;;12.13;;
58354;SDS011;44160;49.080;19.302;2022-10-22T10:55:56;17.50;;;10.30;;
58354;SDS011;44160;49.080;19.302;2022-10-22T10:58:33;18.67;;;11.52;;
58354;SDS011;44160;49.080;19.302;2022-10-22T11:01:09;24.67;;;13.75;;
58354;SDS011;44160;49.080;19.302;2022-10-22T11:06:18;34.85;;;20.38;;
58354;SDS011;44160;49.080;19.302;2022-10-22T11:11:24;26.85;;;16.33;;
58354;SDS011;44160;49.080;19.302;2022-10-22T11:13:52;24.85;;;15.43;;
58354;SDS011;44160;49.080;19.302;2022-10-22T11:16:30;19.98;;;12.45;;
58354;SDS011;44160;49.080;19.302;2022-10-22T11:21:28;19.15;;;11.88;;
58354;SDS011;44160;49.080;19.302;2022-10-22T11:24:03;20.20;;;11.20;;
58354;SDS011;44160;49.080;19.302;2022-10-22T11:26:35;18.75;;;10.07;;
58354;SDS011;44160;49.080;19.302;2022-10-22T11:29:02;19.48;;;10.20;;
58354;SDS011;44160;49.080;19.302;2022-10-22T11:31:32;18.23;;;10.18;;
58354;SDS011;44160;49.080;19.302;2022-10-22T11:36:27;24.98;;;10.95;;
58354;SDS011;44160;49.080;19.302;2022-10-22T11:38:54;18.73;;;10.18;;
58354;SDS011;44160;49.080;19.302;2022-10-22T11:41:25;20.63;;;10.32;;
58354;SDS011;44160;49.080;19.302;2022-10-22T11:44:07;19.13;;;10.40;;
58354;SDS011;44160;49.080;19.302;2022-10-22T11:46:38;15.80;;;9.52;;
58354;SDS011;44160;49.080;19.302;2022-10-22T11:51:40;18.23;;;10.38;;
58354;SDS011;44160;49.080;19.302;2022-10-22T11:54:25;22.05;;;10.32;;
58354;SDS011;44160;49.080;19.302;2022-10-22T11:56:57;19.52;;;10.93;;
58354;SDS011;44160;49.080;19.302;2022-10-22T11:59:37;36.97;;;21.20;;
58354;SDS011;44160;49.080;19.302;2022-10-22T12:02:19;25.52;;;13.48;;
58354;SDS011;44160;49.080;19.302;2022-10-22T12:04:47;22.30;;;15.05;;
58354;SDS011;44160;49.080;19.302;2022-10-22T12:07:33;26.65;;;14.57;;
58354;SDS011;44160;49.080;19.302;2022-10-22T12:09:59;33.05;;;18.98;;
58354;SDS011;44160;49.080;19.302;2022-10-22T12:12:25;26.63;;;13.00;;
58354;SDS011;44160;49.080;19.302;2022-10-22T12:14:54;22.15;;;12.90;;
58354;SDS011;44160;49.080;19.302;2022-10-22T12:17:21;22.10;;;12.95;;
58354;SDS011;44160;49.080;19.302;2022-10-22T12:22:46;22.13;;;13.52;;
58354;SDS011;44160;49.080;19.302;2022-10-22T12:25:20;22.50;;;15.02;;
58354;SDS011;44160;49.080;19.302;2022-10-22T12:27:51;22.00;;;13.25;;
58354;SDS011;44160;49.080;19.302;2022-10-22T12:32:46;29.60;;;17.67;;
58354;SDS011;44160;49.080;19.302;2022-10-22T12:35:16;25.60;;;15.50;;
58354;SDS011;44160;49.080;19.302;2022-10-22T12:37:43;25.48;;;16.73;;
58354;SDS011;44160;49.080;19.302;2022-10-22T12:40:22;26.00;;;16.10;;
58354;SDS011;44160;49.080;19.302;2022-10-22T12:42:50;26.77;;;17.40;;
58354;SDS011;44160;49.080;19.302;2022-10-22T12:45:16;26.85;;;18.35;;
58354;SDS011;44160;49.080;19.302;2022-10-22T12:47:49;29.77;;;17.10;;
58354;SDS011;44160;49.080;19.302;2022-10-22T12:50:19;24.25;;;14.63;;
58354;SDS011;44160;49.080;19.302;2022-10-22T12:52:46;28.65;;;15.25;;
58354;SDS011;44160;49.080;19.302;2022-10-22T12:55:16;24.65;;;15.73;;
58354;SDS011;44160;49.080;19.302;2022-10-22T12:57:45;18.58;;;12.98;;
58354;SDS011;44160;49.080;19.302;2022-10-22T13:00:19;27.40;;;14.35;;
58354;SDS011;44160;49.080;19.302;2022-10-22T13:02:45;25.08;;;14.57;;
58354;SDS011;44160;49.080;19.302;2022-10-22T13:07:42;21.38;;;12.63;;
58354;SDS011;44160;49.080;19.302;2022-10-22T13:10:13;19.23;;;12.15;;
58354;SDS011;44160;49.080;19.302;2022-10-22T13:12:42;19.25;;;11.82;;
58354;SDS011;44160;49.080;19.302;2022-10-22T13:15:29;21.88;;;12.07;;
58354;SDS011;44160;49.080;19.302;2022-10-22T13:20:31;21.95;;;11.68;;
58354;SDS011;44160;49.080;19.302;2022-10-22T13:23:02;21.15;;;12.18;;
58354;SDS011;44160;49.080;19.302;2022-10-22T13:25:30;19.17;;;13.55;;
58354;SDS011;44160;49.080;19.302;2022-10-22T13:28:00;21.90;;;13.57;;
58354;SDS011;44160;49.080;19.302;2022-10-22T13:30:29;27.40;;;15.77;;
58354;SDS011;44160;49.080;19.302;2022-10-22T13:32:57;23.15;;;12.57;;
58354;SDS011;44160;49.080;19.302;2022-10-22T13:35:25;18.83;;;12.68;;
58354;SDS011;44160;49.080;19.302;2022-10-22T13:37:52;20.25;;;13.27;;
58354;SDS011;44160;49.080;19.302;2022-10-22T13:40:18;23.17;;;13.80;;
58354;SDS011;44160;49.080;19.302;2022-10-22T13:42:44;19.45;;;12.40;;
58354;SDS011;44160;49.080;19.302;2022-10-22T13:45:11;19.65;;;12.80;;
58354;SDS011;44160;49.080;19.302;2022-10-22T13:47:37;25.27;;;13.90;;
58354;SDS011;44160;49.080;19.302;2022-10-22T13:50:06;25.85;;;14.88;;
58354;SDS011;44160;49.080;19.302;2022-10-22T13:52:52;25.00;;;14.82;;
58354;SDS011;44160;49.080;19.302;2022-10-22T13:55:21;32.53;;;16.20;;
58354;SDS011;44160;49.080;19.302;2022-10-22T13:57:49;32.47;;;17.17;;
58354;SDS011;44160;49.080;19.302;2022-10-22T14:00:16;27.00;;;16.77;;
58354;SDS011;44160;49.080;19.302;2022-10-22T14:02:43;28.70;;;19.15;;
58354;SDS011;44160;49.080;19.302;2022-10-22T14:05:11;33.83;;;20.05;;
58354;SDS011;44160;49.080;19.302;2022-10-22T14:07:37;28.60;;;18.33;;
58354;SDS011;44160;49.080;19.302;2022-10-22T14:10:18;27.98;;;16.27;;
58354;SDS011;44160;49.080;19.302;2022-10-22T14:12:44;24.98;;;15.95;;
58354;SDS011;44160;49.080;19.302;2022-10-22T14:15:11;29.50;;;17.15;;
58354;SDS011;44160;49.080;19.302;2022-10-22T14:17:38;31.63;;;16.60;;
58354;SDS011;44160;49.080;19.302;2022-10-22T14:20:05;21.98;;;14.68;;
58354;SDS011;44160;49.080;19.302;2022-10-22T14:22:31;21.85;;;14.15;;
58354;SDS011;44160;49.080;19.302;2022-10-22T14:24:57;22.17;;;14.00;;
58354;SDS011;44160;49.080;19.302;2022-10-22T14:27:23;20.35;;;13.77;;
58354;SDS011;44160;49.080;19.302;2022-10-22T14:29:49;22.83;;;14.95;;
58354;SDS011;44160;49.080;19.302;2022-10-22T14:32:17;25.58;;;15.82;;
58354;SDS011;44160;49.080;19.302;2022-10-22T14:34:44;28.15;;;16.45;;
58354;SDS011;44160;49.080;19.302;2022-10-22T14:37:16;25.48;;;15.70;;
58354;SDS011;44160;49.080;19.302;2022-10-22T14:39:43;24.38;;;15.10;;
58354;SDS011;44160;49.080;19.302;2022-10-22T14:42:11;27.30;;;16.13;;
58354;SDS011;44160;49.080;19.302;2022-10-22T14:44:38;26.52;;;16.17;;
58354;SDS011;44160;49.080;19.302;2022-10-22T14:47:04;25.05;;;16.27;;
58354;SDS011;44160;49.080;19.302;2022-10-22T14:49:30;33.58;;;18.88;;
58354;SDS011;44160;49.080;19.302;2022-10-22T14:51:56;24.05;;;17.35;;
58354;SDS011;44160;49.080;19.302;2022-10-22T14:54:22;29.70;;;17.08;;
58354;SDS011;44160;49.080;19.302;2022-10-22T14:56:48;24.83;;;15.32;;
58354;SDS011;44160;49.080;19.302;2022-10-22T14:59:14;29.17;;;17.33;;
58354;SDS011;44160;49.080;19.302;2022-10-22T15:01:40;23.33;;;16.63;;
58354;SDS011;44160;49.080;19.302;2022-10-22T15:04:06;28.13;;;18.02;;
58354;SDS011;44160;49.080;19.302;2022-10-22T15:06:33;33.53;;;20.73;;
58354;SDS011;44160;49.080;19.302;2022-10-22T15:09:00;27.77;;;18.20;;
58354;SDS011;44160;49.080;19.302;2022-10-22T15:11:26;27.60;;;16.90;;
58354;SDS011;44160;49.080;19.302;2022-10-22T15:13:52;24.05;;;16.42;;
58354;SDS011;44160;49.080;19.302;2022-10-22T15:16:18;24.80;;;16.70;;
58354;SDS011;44160;49.080;19.302;2022-10-22T15:18:44;24.92;;;17.00;;
58354;SDS011;44160;49.080;19.302;2022-10-22T15:21:14;33.15;;;17.40;;
58354;SDS011;44160;49.080;19.302;2022-10-22T15:23:40;25.20;;;16.70;;
58354;SDS011;44160;49.080;19.302;2022-10-22T15:26:07;23.63;;;15.75;;
58354;SDS011;44160;49.080;19.302;2022-10-22T15:28:33;22.02;;;15.82;;
58354;SDS011;44160;49.080;19.302;2022-10-22T15:30:59;29.20;;;17.85;;
58354;SDS011;44160;49.080;19.302;2022-10-22T15:33:26;30.33;;;17.40;;
58354;SDS011;44160;49.080;19.302;2022-10-22T15:35:52;23.58;;;15.82;;
58354;SDS011;44160;49.080;19.302;2022-10-22T15:38:18;27.17;;;16.67;;
58354;SDS011;44160;49.080;19.302;2022-10-22T15:40:44;25.73;;;16.83;;
58354;SDS011;44160;49.080;19.302;2022-10-22T15:43:10;28.77;;;16.38;;
58354;SDS011;44160;49.080;19.302;2022-10-22T15:45:37;23.95;;;15.27;;
58354;SDS011;44160;49.080;19.302;2022-10-22T15:48:03;26.48;;;16.38;;
58354;SDS011;44160;49.080;19.302;2022-10-22T15:50:30;21.50;;;15.20;;
58354;SDS011;44160;49.080;19.302;2022-10-22T15:52:57;24.25;;;14.98;;
58354;SDS011;44160;49.080;19.302;2022-10-22T15:55:23;24.88;;;15.65;;
58354;SDS011;44160;49.080;19.302;2022-10-22T15:57:49;23.48;;;15.75;;
58354;SDS011;44160;49.080;19.302;2022-10-22T16:00:19;24.00;;;16.83;;
58354;SDS011;44160;49.080;19.302;2022-10-22T16:02:46;22.95;;;16.27;;
58354;SDS011;44160;49.080;19.302;2022-10-22T16:05:12;25.63;;;15.98;;
58354;SDS011;44160;49.080;19.302;2022-10-22T16:07:38;25.08;;;16.10;;
58354;SDS011;44160;49.080;19.302;2022-10-22T16:10:04;21.25;;;15.15;;
58354;SDS011;44160;49.080;19.302;2022-10-22T16:12:31;28.20;;;18.83;;
58354;SDS011;44160;49.080;19.302;2022-10-22T16:14:59;37.53;;;23.90;;
58354;SDS011;44160;49.080;19.302;2022-10-22T16:17:25;35.15;;;24.88;;
58354;SDS011;44160;49.080;19.302;2022-10-22T16:19:51;30.27;;;20.63;;